createdAt,value
2018-07-16T00:00:18.038Z,4.20
2018-07-16T00:01:18.026Z,3.60
2018-07-16T00:02:18.011Z,3.40
2018-07-16T00:03:17.996Z,4.00
2018-07-16T00:04:17.981Z,3.70
2018-07-16T00:05:17.971Z,3.90
2018-07-16T00:06:17.953Z,3.40
2018-07-16T00:07:17.939Z,4.00
2018-07-16T00:08:17.925Z,3.60
2018-07-16T00:09:17.919Z,3.50
2018-07-16T00:10:17.899Z,3.90
2018-07-16T00:11:17.884Z,4.10
2018-07-16T00:12:17.870Z,3.50
2018-07-16T00:13:17.858Z,3.50
2018-07-16T00:14:17.842Z,3.30
2018-07-16T00:15:17.827Z,3.70
2018-07-16T00:16:17.814Z,3.80
2018-07-16T00:17:17.827Z,4.20
2018-07-16T00:18:17.797Z,4.30
2018-07-16T00:19:17.770Z,3.50
2018-07-16T00:20:17.757Z,3.60
2018-07-16T00:21:17.741Z,4.00
2018-07-16T00:22:17.729Z,3.30
2018-07-16T00:23:17.715Z,3.70
2018-07-16T00:24:17.698Z,3.20
2018-07-16T00:25:17.684Z,3.20
2018-07-16T00:26:17.670Z,3.40
2018-07-16T00:27:17.657Z,3.20
2018-07-16T00:28:17.641Z,4.80
2018-07-16T00:29:17.626Z,3.40
2018-07-16T00:30:17.613Z,3.30
2018-07-16T00:31:17.601Z,3.20
2018-07-16T00:32:17.587Z,2.90
2018-07-16T00:33:17.573Z,3.70
2018-07-16T00:34:17.556Z,3.40
2018-07-16T00:35:17.543Z,3.40
2018-07-16T00:36:17.527Z,2.90
2018-07-16T00:37:17.514Z,2.80
2018-07-16T00:38:17.505Z,2.90
2018-07-16T00:39:17.484Z,3.80
2018-07-16T00:40:17.469Z,3.50
2018-07-16T00:41:17.459Z,4.70
2018-07-16T00:42:17.441Z,3.80
2018-07-16T00:43:17.426Z,3.60
2018-07-16T00:44:17.471Z,3.00
2018-07-16T00:45:17.396Z,3.10
2018-07-16T00:46:17.383Z,3.80
2018-07-16T00:47:17.369Z,4.00
2018-07-16T00:48:17.353Z,3.50
2018-07-16T00:49:17.339Z,3.50
2018-07-16T00:50:17.324Z,4.00
2018-07-16T00:51:17.311Z,3.60
2018-07-16T00:52:17.294Z,4.10
2018-07-16T00:53:17.287Z,3.90
2018-07-16T00:54:17.267Z,4.30
2018-07-16T00:55:17.253Z,4.00
2018-07-16T00:56:17.244Z,4.40
2018-07-16T00:57:17.228Z,3.80
2018-07-16T00:58:17.215Z,4.00
2018-07-16T00:59:17.201Z,4.70
2018-07-16T01:00:17.181Z,4.50
2018-07-16T01:01:17.163Z,4.50
2018-07-16T01:02:17.150Z,4.70
2018-07-16T01:03:17.134Z,4.40
2018-07-16T01:04:17.119Z,4.70
2018-07-16T01:05:17.105Z,5.10
2018-07-16T01:06:17.094Z,4.90
2018-07-16T01:07:17.082Z,5.30
2018-07-16T01:08:17.063Z,5.10
2018-07-16T01:09:17.048Z,4.60
2018-07-16T01:10:17.034Z,5.20
2018-07-16T01:11:17.018Z,5.10
2018-07-16T01:12:17.001Z,5.00
2018-07-16T01:13:16.987Z,5.20
2018-07-16T01:14:16.973Z,4.70
2018-07-16T01:15:16.958Z,4.80
2018-07-16T01:16:16.997Z,5.00
2018-07-16T01:17:16.930Z,5.40
2018-07-16T01:18:16.918Z,5.50
2018-07-16T01:19:16.902Z,5.80
2018-07-16T01:20:16.884Z,5.60
2018-07-16T01:21:16.870Z,5.40
2018-07-16T01:22:16.860Z,5.60
2018-07-16T01:23:16.841Z,5.60
2018-07-16T01:24:16.825Z,5.70
2018-07-16T01:25:16.813Z,5.50
2018-07-16T01:26:16.796Z,5.20
2018-07-16T01:27:16.780Z,5.60
2018-07-16T01:28:16.768Z,5.40
2018-07-16T01:29:16.754Z,6.00
2018-07-16T01:30:16.740Z,6.40
2018-07-16T01:31:16.730Z,5.70
2018-07-16T01:32:16.713Z,5.50
2018-07-16T01:33:16.692Z,4.60
2018-07-16T01:34:16.678Z,5.60
2018-07-16T01:35:16.666Z,5.30
2018-07-16T01:36:16.697Z,5.50
2018-07-16T01:37:16.643Z,5.50
2018-07-16T01:38:16.620Z,5.60
2018-07-16T01:39:16.604Z,4.50
2018-07-16T01:40:16.591Z,4.90
2018-07-16T01:41:16.579Z,4.50
2018-07-16T01:42:16.561Z,4.70
2018-07-16T01:43:16.547Z,5.40
2018-07-16T01:44:16.532Z,4.80
2018-07-16T01:45:16.516Z,4.70
2018-07-16T01:46:16.500Z,4.10
2018-07-16T01:47:16.486Z,4.60
2018-07-16T01:48:16.470Z,4.50
2018-07-16T01:49:16.457Z,5.70
2018-07-16T01:50:16.441Z,4.30
2018-07-16T01:51:16.425Z,4.00
2018-07-16T01:52:16.412Z,4.70
2018-07-16T01:53:16.395Z,4.80
2018-07-16T01:54:16.381Z,4.20
2018-07-16T01:55:16.368Z,4.50
2018-07-16T01:56:16.352Z,4.80
2018-07-16T01:57:16.339Z,4.60
2018-07-16T01:58:16.321Z,4.80
2018-07-16T01:59:16.307Z,5.30
2018-07-16T02:00:16.291Z,5.40
2018-07-16T02:01:16.275Z,5.10
2018-07-16T02:02:16.264Z,5.40
2018-07-16T02:03:16.245Z,5.30
2018-07-16T02:04:16.228Z,4.80
2018-07-16T02:05:16.218Z,4.40
2018-07-16T02:06:16.201Z,4.40
2018-07-16T02:07:16.188Z,4.60
2018-07-16T02:08:16.169Z,4.50
2018-07-16T02:09:16.154Z,4.80
2018-07-16T02:10:16.143Z,4.40
2018-07-16T02:11:16.124Z,4.80
2018-07-16T02:12:16.109Z,4.80
2018-07-16T02:13:16.092Z,5.10
2018-07-16T02:14:16.080Z,5.20
2018-07-16T02:15:16.168Z,4.30
2018-07-16T02:16:16.048Z,4.50
2018-07-16T02:17:16.035Z,5.20
2018-07-16T02:18:16.027Z,4.50
2018-07-16T02:19:16.004Z,4.10
2018-07-16T02:20:15.988Z,4.90
2018-07-16T02:21:15.976Z,4.60
2018-07-16T02:22:15.957Z,5.20
2018-07-16T02:23:15.943Z,4.80
2018-07-16T02:24:15.927Z,5.40
2018-07-16T02:25:15.913Z,4.10
2018-07-16T02:26:15.898Z,5.40
2018-07-16T02:27:15.887Z,5.00
2018-07-16T02:28:15.870Z,4.70
2018-07-16T02:29:15.851Z,4.80
2018-07-16T02:30:15.836Z,4.50
2018-07-16T02:31:15.821Z,4.40
2018-07-16T02:32:15.805Z,4.00
2018-07-16T02:33:15.791Z,4.60
2018-07-16T02:34:15.775Z,4.10
2018-07-16T02:35:15.760Z,4.60
2018-07-16T02:36:15.744Z,4.70
2018-07-16T02:37:15.730Z,4.90
2018-07-16T02:38:15.719Z,4.70
2018-07-16T02:39:15.699Z,4.10
2018-07-16T02:40:15.684Z,5.10
2018-07-16T02:41:15.667Z,4.70
2018-07-16T02:42:15.657Z,4.80
2018-07-16T02:43:15.638Z,4.50
2018-07-16T02:44:15.622Z,4.90
2018-07-16T02:45:15.607Z,5.20
2018-07-16T02:46:15.591Z,5.80
2018-07-16T02:47:15.580Z,5.80
2018-07-16T02:48:15.561Z,6.00
2018-07-16T02:49:15.549Z,5.70
2018-07-16T02:50:15.531Z,5.80
2018-07-16T02:51:15.514Z,6.20
2018-07-16T02:52:15.503Z,6.00
2018-07-16T02:53:15.518Z,4.80
2018-07-16T02:54:15.477Z,6.10
2018-07-16T02:55:15.454Z,5.40
2018-07-16T02:56:15.500Z,5.60
2018-07-16T02:57:15.423Z,5.40
2018-07-16T02:58:15.408Z,5.20
2018-07-16T02:59:15.394Z,6.30
2018-07-16T03:00:15.376Z,5.70
2018-07-16T03:01:15.365Z,5.80
2018-07-16T03:02:15.345Z,5.50
2018-07-16T03:03:15.330Z,5.80
2018-07-16T03:04:15.314Z,5.20
2018-07-16T03:05:15.306Z,4.80
2018-07-16T03:06:15.282Z,4.90
2018-07-16T03:07:15.268Z,4.90
2018-07-16T03:08:15.255Z,5.40
2018-07-16T03:09:15.237Z,5.80
2018-07-16T03:10:15.222Z,6.90
2018-07-16T03:11:15.207Z,5.70
2018-07-16T03:12:15.211Z,6.00
2018-07-16T03:13:15.177Z,5.40
2018-07-16T03:14:15.159Z,5.60
2018-07-16T03:15:15.148Z,5.00
2018-07-16T03:16:15.133Z,4.30
2018-07-16T03:17:15.114Z,5.10
2018-07-16T03:18:15.100Z,5.60
2018-07-16T03:19:15.082Z,6.20
2018-07-16T03:20:15.064Z,4.80
2018-07-16T03:21:15.050Z,5.40
2018-07-16T03:22:15.037Z,5.10
2018-07-16T03:23:15.020Z,5.80
2018-07-16T03:24:15.003Z,6.30
2018-07-16T03:25:14.991Z,5.70
2018-07-16T03:26:14.974Z,5.60
2018-07-16T03:27:14.957Z,6.30
2018-07-16T03:28:14.940Z,6.10
2018-07-16T03:29:14.923Z,7.30
2018-07-16T03:30:14.917Z,5.70
2018-07-16T03:31:14.894Z,6.70
2018-07-16T03:32:14.877Z,6.40
2018-07-16T03:33:14.863Z,8.20
2018-07-16T03:34:14.846Z,7.70
2018-07-16T03:35:14.888Z,7.20
2018-07-16T03:36:14.814Z,7.50
2018-07-16T03:37:14.803Z,7.60
2018-07-16T03:38:14.884Z,7.60
2018-07-16T03:39:14.770Z,7.50
2018-07-16T03:40:14.755Z,7.30
2018-07-16T03:41:14.739Z,7.70
2018-07-16T03:42:14.724Z,8.00
2018-07-16T03:43:14.714Z,6.40
2018-07-16T03:44:14.692Z,6.90
2018-07-16T03:45:14.675Z,7.50
2018-07-16T03:46:14.661Z,7.70
2018-07-16T03:47:14.644Z,7.30
2018-07-16T03:48:14.628Z,7.00
2018-07-16T03:49:14.611Z,7.70
2018-07-16T03:50:14.597Z,6.00
2018-07-16T03:51:14.583Z,7.20
2018-07-16T03:52:14.568Z,6.00
2018-07-16T03:53:14.550Z,5.60
2018-07-16T03:54:14.533Z,6.30
2018-07-16T03:55:14.517Z,7.20
2018-07-16T03:56:14.502Z,7.90
2018-07-16T03:57:14.488Z,6.80
2018-07-16T03:58:14.469Z,6.40
2018-07-16T03:59:14.455Z,6.60
2018-07-16T04:00:14.444Z,6.30
2018-07-16T04:01:14.423Z,8.00
2018-07-16T04:02:14.408Z,7.70
2018-07-16T04:04:01.336Z,6.50
2018-07-16T04:05:01.317Z,7.80
2018-07-16T04:06:01.307Z,7.90
2018-07-16T04:07:01.288Z,7.20
2018-07-16T04:08:01.274Z,7.10
2018-07-16T04:09:01.261Z,7.00
2018-07-16T04:10:01.245Z,7.70
2018-07-16T04:11:01.224Z,7.70
2018-07-16T04:12:01.208Z,6.80
2018-07-16T04:13:01.196Z,6.30
2018-07-16T04:14:01.178Z,7.10
2018-07-16T04:15:01.165Z,5.90
2018-07-16T04:16:01.146Z,6.40
2018-07-16T04:17:01.131Z,6.70
2018-07-16T04:18:01.116Z,6.50
2018-07-16T04:19:01.105Z,7.00
2018-07-16T04:20:01.082Z,7.50
2018-07-16T04:21:01.067Z,7.80
2018-07-16T04:22:01.062Z,8.10
2018-07-16T04:23:01.034Z,7.10
2018-07-16T04:24:01.020Z,8.30
2018-07-16T04:25:01.005Z,10.50
2018-07-16T04:26:00.988Z,10.00
2018-07-16T04:27:00.973Z,9.40
2018-07-16T04:28:00.957Z,10.50
2018-07-16T04:29:00.942Z,9.50
2018-07-16T04:30:00.924Z,7.50
2018-07-16T04:31:00.961Z,8.30
2018-07-16T04:32:00.893Z,11.90
2018-07-16T04:33:00.878Z,11.60
2018-07-16T04:34:00.861Z,9.60
2018-07-16T04:35:00.845Z,8.30
2018-07-16T04:36:00.844Z,8.40
2018-07-16T04:37:00.819Z,9.80
2018-07-16T04:38:00.799Z,9.60
2018-07-16T04:39:00.785Z,9.80
2018-07-16T04:40:00.885Z,10.00
2018-07-16T04:41:00.753Z,9.00
2018-07-16T04:42:00.736Z,10.70
2018-07-16T04:43:00.721Z,35.70
2018-07-16T04:44:00.704Z,19.90
2018-07-16T04:45:00.688Z,10.70
2018-07-16T04:46:00.677Z,19.10
2018-07-16T04:47:00.659Z,19.30
2018-07-16T04:48:00.642Z,14.20
2018-07-16T04:49:00.630Z,11.00
2018-07-16T04:50:00.613Z,9.90
2018-07-16T04:51:00.600Z,10.30
2018-07-16T04:52:00.580Z,10.50
2018-07-16T04:53:00.564Z,10.90
2018-07-16T04:54:00.552Z,11.00
2018-07-16T04:55:00.535Z,11.40
2018-07-16T04:56:00.518Z,11.20
2018-07-16T04:57:00.501Z,11.20
2018-07-16T04:58:00.489Z,10.70
2018-07-16T04:59:00.471Z,10.30
2018-07-16T05:00:00.459Z,10.90
2018-07-16T05:01:00.442Z,10.80
2018-07-16T05:02:00.426Z,12.20
2018-07-16T05:03:00.410Z,12.00
2018-07-16T05:04:00.394Z,11.80
2018-07-16T05:05:00.378Z,11.50
2018-07-16T05:06:00.370Z,11.40
2018-07-16T05:07:00.353Z,11.60
2018-07-16T05:08:00.332Z,12.90
2018-07-16T05:09:00.318Z,199.80
2018-07-16T05:10:00.303Z,252.00
2018-07-16T05:11:00.288Z,108.80
2018-07-16T05:12:00.270Z,21.60
2018-07-16T05:13:00.258Z,13.30
2018-07-16T05:14:00.243Z,13.50
2018-07-16T05:15:00.228Z,11.40
2018-07-16T05:16:00.212Z,12.30
2018-07-16T05:17:00.195Z,12.00
2018-07-16T05:18:00.199Z,10.60
2018-07-16T05:19:00.167Z,11.40
2018-07-16T05:20:00.151Z,11.90
2018-07-16T05:21:00.137Z,12.40
2018-07-16T05:22:00.121Z,11.40
2018-07-16T05:23:00.119Z,12.10
2018-07-16T05:24:00.141Z,11.50
2018-07-16T05:25:00.076Z,11.80
2018-07-16T05:26:00.117Z,12.40
2018-07-16T05:27:00.049Z,12.10
2018-07-16T05:28:00.034Z,12.50
2018-07-16T05:29:00.028Z,11.30
2018-07-16T05:30:00.000Z,12.10
2018-07-16T05:30:59.987Z,11.70
2018-07-16T05:32:00.025Z,12.90
2018-07-16T05:32:59.959Z,13.40
2018-07-16T05:33:59.942Z,12.90
2018-07-16T05:34:59.926Z,12.10
2018-07-16T05:35:59.912Z,12.80
2018-07-16T05:36:59.901Z,12.50
2018-07-16T05:37:59.885Z,11.30
2018-07-16T05:38:59.869Z,10.30
2018-07-16T05:39:59.852Z,12.30
2018-07-16T05:40:59.840Z,10.00
2018-07-16T05:41:59.824Z,10.70
2018-07-16T05:42:59.811Z,10.20
2018-07-16T05:43:59.796Z,9.20
2018-07-16T05:44:59.788Z,11.10
2018-07-16T05:45:59.766Z,10.50
2018-07-16T05:46:59.751Z,10.40
2018-07-16T05:47:59.742Z,9.20
2018-07-16T05:48:59.729Z,10.30
2018-07-16T05:49:59.709Z,9.00
2018-07-16T05:50:59.702Z,10.10
2018-07-16T05:51:59.677Z,8.80
2018-07-16T05:52:59.667Z,8.80
2018-07-16T05:53:59.648Z,9.70
2018-07-16T05:54:59.639Z,8.60
2018-07-16T05:55:59.618Z,9.50
2018-07-16T05:56:59.606Z,7.90
2018-07-16T05:57:59.591Z,8.20
2018-07-16T05:58:59.578Z,8.00
2018-07-16T05:59:59.565Z,7.80
2018-07-16T06:00:59.552Z,8.00
2018-07-16T06:01:59.533Z,8.10
2018-07-16T06:02:59.521Z,7.30
2018-07-16T06:03:59.505Z,7.30
2018-07-16T06:04:59.490Z,7.10
2018-07-16T06:05:59.476Z,7.80
2018-07-16T06:06:59.462Z,7.30
2018-07-16T06:07:59.446Z,6.60
2018-07-16T06:08:59.433Z,6.40
2018-07-16T06:09:59.417Z,7.50
2018-07-16T06:10:59.404Z,6.20
2018-07-16T06:11:59.389Z,6.90
2018-07-16T06:12:59.378Z,6.30
2018-07-16T06:13:59.360Z,5.80
2018-07-16T06:14:59.355Z,5.40
2018-07-16T06:15:59.344Z,5.80
2018-07-16T06:16:59.319Z,5.40
2018-07-16T06:17:59.308Z,5.70
2018-07-16T06:18:59.293Z,5.80
2018-07-16T06:19:59.276Z,5.60
2018-07-16T06:20:59.264Z,5.70
2018-07-16T06:21:59.252Z,5.40
2018-07-16T06:22:59.245Z,4.70
2018-07-16T06:23:59.258Z,6.10
2018-07-16T06:24:59.207Z,5.30
2018-07-16T06:25:59.196Z,5.40
2018-07-16T06:26:59.190Z,4.60
2018-07-16T06:27:59.166Z,4.90
2018-07-16T06:28:59.151Z,5.30
2018-07-16T06:29:59.138Z,5.10
2018-07-16T06:30:59.127Z,4.40
2018-07-16T06:31:59.115Z,4.30
2018-07-16T06:32:59.114Z,4.50
2018-07-16T06:33:59.087Z,4.40
2018-07-16T06:34:59.075Z,3.90
2018-07-16T06:35:59.055Z,4.50
2018-07-16T06:36:59.043Z,5.30
2018-07-16T06:37:59.028Z,4.30
2018-07-16T06:38:59.018Z,4.40
2018-07-16T06:39:59.170Z,4.40
2018-07-16T06:40:59.219Z,4.00
2018-07-16T06:41:58.976Z,4.70
2018-07-16T06:42:58.961Z,4.00
2018-07-16T06:43:58.946Z,3.70
2018-07-16T06:44:58.938Z,4.00
2018-07-16T06:45:58.922Z,3.70
2018-07-16T06:46:58.907Z,4.00
2018-07-16T06:47:58.896Z,4.10
2018-07-16T06:48:58.885Z,3.70
2018-07-16T06:49:58.871Z,4.00
2018-07-16T06:50:58.855Z,4.00
2018-07-16T06:51:58.841Z,5.00
2018-07-16T06:52:58.832Z,4.10
2018-07-16T06:53:58.819Z,3.70
2018-07-16T06:54:58.807Z,3.30
2018-07-16T06:55:58.789Z,2.70
2018-07-16T06:56:58.776Z,2.60
2018-07-16T06:57:58.762Z,2.80
2018-07-16T06:58:58.753Z,2.10
2018-07-16T06:59:58.744Z,2.60
2018-07-16T07:00:58.725Z,2.90
2018-07-16T07:01:58.716Z,2.70
2018-07-16T07:02:58.699Z,2.90
2018-07-16T07:03:58.686Z,3.50
2018-07-16T07:04:58.672Z,5.90
2018-07-16T07:05:58.661Z,2.40
2018-07-16T07:06:58.651Z,2.50
2018-07-16T07:07:58.633Z,3.50
2018-07-16T07:08:58.623Z,2.90
2018-07-16T07:09:58.672Z,2.50
2018-07-16T07:10:58.597Z,2.50
2018-07-16T07:11:58.584Z,2.30
2018-07-16T07:12:58.574Z,2.90
2018-07-16T07:13:58.560Z,2.70
2018-07-16T07:14:58.546Z,2.10
2018-07-16T07:15:58.535Z,3.10
2018-07-16T07:16:58.523Z,2.40
2018-07-16T07:17:58.513Z,3.10
2018-07-16T07:18:58.498Z,2.60
2018-07-16T07:19:58.484Z,2.60
2018-07-16T07:20:58.525Z,3.00
2018-07-16T07:21:58.461Z,2.40
2018-07-16T07:22:58.450Z,2.70
2018-07-16T07:23:58.436Z,2.80
2018-07-16T07:24:58.424Z,3.10
2018-07-16T07:25:58.416Z,2.70
2018-07-16T07:26:58.401Z,2.50
2018-07-16T07:27:58.388Z,2.50
2018-07-16T07:28:58.377Z,2.60
2018-07-16T07:29:58.365Z,2.40
2018-07-16T07:30:58.357Z,2.60
2018-07-16T07:31:58.347Z,3.10
2018-07-16T07:32:58.332Z,3.00
2018-07-16T07:33:58.319Z,3.10
2018-07-16T07:34:58.353Z,6.60
2018-07-16T07:35:58.388Z,2.40
2018-07-16T07:36:58.283Z,3.70
2018-07-16T07:37:58.294Z,2.70
2018-07-16T07:38:58.259Z,6.30
2018-07-16T07:39:58.247Z,4.30
2018-07-16T07:40:58.236Z,3.00
2018-07-16T07:41:58.232Z,3.70
2018-07-16T07:42:58.217Z,4.60
2018-07-16T07:43:58.208Z,3.50
2018-07-16T07:44:58.197Z,3.60
2018-07-16T07:45:58.180Z,2.70
2018-07-16T07:46:58.169Z,3.10
2018-07-16T07:47:58.157Z,2.80
2018-07-16T07:48:58.148Z,5.30
2018-07-16T07:49:58.140Z,3.60
2018-07-16T07:50:58.131Z,4.50
2018-07-16T07:51:58.114Z,3.60
2018-07-16T07:52:58.111Z,2.30
2018-07-16T07:53:58.094Z,2.40
2018-07-16T07:54:58.331Z,2.90
2018-07-16T07:55:58.075Z,2.80
2018-07-16T07:56:58.063Z,3.00
2018-07-16T07:57:58.054Z,2.50
2018-07-16T07:58:58.044Z,12.80
2018-07-16T07:59:58.028Z,40.20
2018-07-16T08:00:58.019Z,25.30
2018-07-16T08:01:58.010Z,11.00
2018-07-16T08:02:58.005Z,3.20
2018-07-16T08:03:57.988Z,2.80
2018-07-16T08:04:57.978Z,3.20
2018-07-16T08:05:57.971Z,4.10
2018-07-16T08:06:57.976Z,2.80
2018-07-16T08:07:57.947Z,2.80
2018-07-16T08:08:57.942Z,2.40
2018-07-16T08:09:57.928Z,2.60
2018-07-16T08:10:57.919Z,2.50
2018-07-16T08:11:57.908Z,4.70
2018-07-16T08:12:58.508Z,2.00
2018-07-16T08:13:57.889Z,3.30
2018-07-16T08:14:57.880Z,2.40
2018-07-16T08:15:57.870Z,4.70
2018-07-16T08:16:57.860Z,3.80
2018-07-16T08:17:57.855Z,2.40
2018-07-16T08:18:57.844Z,2.70
2018-07-16T08:19:57.831Z,5.50
2018-07-16T08:20:57.891Z,2.50
2018-07-16T08:21:57.812Z,4.20
2018-07-16T08:22:59.015Z,4.50
2018-07-16T08:23:57.793Z,7.40
2018-07-16T08:24:57.783Z,12.20
2018-07-16T08:25:57.786Z,9.50
2018-07-16T08:26:57.772Z,3.60
2018-07-16T08:27:57.755Z,2.50
2018-07-16T08:28:57.754Z,4.30
2018-07-16T08:29:57.738Z,3.30
2018-07-16T08:30:57.733Z,4.10
2018-07-16T08:31:57.718Z,2.90
2018-07-16T08:32:57.709Z,3.20
2018-07-16T08:33:57.701Z,4.70
2018-07-16T08:34:57.696Z,3.00
2018-07-16T08:35:57.681Z,2.90
2018-07-16T08:36:57.671Z,3.10
2018-07-16T08:37:57.663Z,2.60
2018-07-16T08:38:57.716Z,3.30
2018-07-16T08:39:57.648Z,2.40
2018-07-16T08:40:57.636Z,2.80
2018-07-16T08:41:57.633Z,2.40
2018-07-16T08:42:57.618Z,2.20
2018-07-16T08:43:57.609Z,2.70
2018-07-16T08:44:57.599Z,2.50
2018-07-16T08:45:57.601Z,3.90
2018-07-16T08:46:57.591Z,2.10
2018-07-16T08:47:57.573Z,3.30
2018-07-16T08:48:57.566Z,2.10
2018-07-16T08:49:57.556Z,2.50
2018-07-16T08:50:57.552Z,2.60
2018-07-16T08:51:57.537Z,5.70
2018-07-16T08:52:57.529Z,3.30
2018-07-16T08:53:57.521Z,3.30
2018-07-16T08:54:57.514Z,3.90
2018-07-16T08:55:57.505Z,3.70
2018-07-16T08:56:57.496Z,3.00
2018-07-16T08:57:57.487Z,1.70
2018-07-16T08:58:57.490Z,3.80
2018-07-16T08:59:57.474Z,2.80
2018-07-16T09:00:57.467Z,2.90
2018-07-16T09:01:57.462Z,1.80
2018-07-16T09:02:57.450Z,2.60
2018-07-16T09:03:57.499Z,2.70
2018-07-16T09:04:57.442Z,2.50
2018-07-16T09:05:57.436Z,2.70
2018-07-16T09:06:57.432Z,1.60
2018-07-16T09:07:57.427Z,4.00
2018-07-16T09:08:57.423Z,3.10
2018-07-16T09:09:57.417Z,2.70
2018-07-16T09:10:57.438Z,3.40
2018-07-16T09:11:57.408Z,7.20
2018-07-16T09:12:57.415Z,3.60
2018-07-16T09:13:57.402Z,2.30
2018-07-16T09:14:57.400Z,1.80
2018-07-16T09:15:57.395Z,2.90
2018-07-16T09:16:57.471Z,3.70
2018-07-16T09:17:57.389Z,2.60
2018-07-16T09:18:57.388Z,1.70
2018-07-16T09:19:57.382Z,2.20
2018-07-16T09:20:57.381Z,2.20
2018-07-16T09:21:57.375Z,1.90
2018-07-16T09:22:57.374Z,1.30
2018-07-16T09:23:57.375Z,2.80
2018-07-16T09:24:57.369Z,2.10
2018-07-16T09:25:57.372Z,2.80
2018-07-16T09:26:57.366Z,1.80
2018-07-16T09:27:57.369Z,1.60
2018-07-16T09:28:57.363Z,2.70
2018-07-16T09:29:57.363Z,1.20
2018-07-16T09:30:57.358Z,1.90
2018-07-16T09:31:57.417Z,2.50
2018-07-16T09:32:57.359Z,2.30
2018-07-16T09:33:57.360Z,1.10
2018-07-16T09:34:57.357Z,2.40
2018-07-16T09:35:57.357Z,1.40
2018-07-16T09:36:57.354Z,1.40
2018-07-16T09:37:57.354Z,2.70
2018-07-16T09:38:57.381Z,2.30
2018-07-16T09:39:57.354Z,2.90
2018-07-16T09:40:57.352Z,2.10
2018-07-16T09:41:57.350Z,1.70
2018-07-16T09:42:57.356Z,4.40
2018-07-16T09:43:57.351Z,2.80
2018-07-16T09:44:57.357Z,2.10
2018-07-16T09:45:57.360Z,2.90
2018-07-16T09:46:57.352Z,7.90
2018-07-16T09:47:57.352Z,3.10
2018-07-16T09:48:57.353Z,2.90
2018-07-16T09:49:57.351Z,3.90
2018-07-16T09:50:57.351Z,2.10
2018-07-16T09:51:57.350Z,0.90
2018-07-16T09:52:57.360Z,1.20
2018-07-16T09:53:57.350Z,1.60
2018-07-16T09:54:57.351Z,2.50
2018-07-16T09:55:57.350Z,0.70
2018-07-16T09:56:57.351Z,0.80
2018-07-16T09:57:57.350Z,1.70
2018-07-16T09:58:57.352Z,2.70
2018-07-16T09:59:57.353Z,1.10
2018-07-16T10:00:57.352Z,2.10
2018-07-16T10:01:57.355Z,0.90
2018-07-16T10:02:57.360Z,2.00
2018-07-16T10:03:57.359Z,2.40
2018-07-16T10:04:57.358Z,2.00
2018-07-16T10:05:57.409Z,1.90
2018-07-16T10:06:57.360Z,1.00
2018-07-16T10:07:57.361Z,2.40
2018-07-16T10:08:57.360Z,1.60
2018-07-16T10:09:57.363Z,2.60
2018-07-16T10:10:57.368Z,2.90
2018-07-16T10:11:57.367Z,2.30
2018-07-16T10:12:57.373Z,1.50
2018-07-16T10:13:57.370Z,1.30
2018-07-16T10:14:57.370Z,0.90
2018-07-16T10:15:57.373Z,1.80
2018-07-16T10:16:57.377Z,1.30
2018-07-16T10:17:57.382Z,3.10
2018-07-16T10:18:57.374Z,1.60
2018-07-16T10:19:57.432Z,1.50
2018-07-16T10:20:57.378Z,1.20
2018-07-16T10:21:57.381Z,2.80
2018-07-16T10:22:57.390Z,3.50
2018-07-16T10:23:57.386Z,1.10
2018-07-16T10:24:57.384Z,1.10
2018-07-16T10:25:57.502Z,2.60
2018-07-16T10:26:57.390Z,0.70
2018-07-16T10:27:57.391Z,0.70
2018-07-16T10:28:57.400Z,3.30
2018-07-16T10:29:57.394Z,1.00
2018-07-16T10:30:57.399Z,0.90
2018-07-16T10:31:57.398Z,0.70
2018-07-16T10:32:57.405Z,1.60
2018-07-16T10:33:57.645Z,2.00
2018-07-16T10:34:57.410Z,2.60
2018-07-16T10:35:57.407Z,2.20
2018-07-16T10:36:57.410Z,2.00
2018-07-16T10:37:57.416Z,1.20
2018-07-16T10:38:57.417Z,0.80
2018-07-16T10:39:57.416Z,1.20
2018-07-16T10:40:57.420Z,1.90
2018-07-16T10:41:57.426Z,1.00
2018-07-16T10:42:57.427Z,0.80
2018-07-16T10:43:57.427Z,1.20
2018-07-16T10:44:57.429Z,0.80
2018-07-16T10:45:57.433Z,2.30
2018-07-16T10:46:57.436Z,0.80
2018-07-16T10:47:57.440Z,0.90
2018-07-16T10:48:57.446Z,0.60
2018-07-16T10:49:57.443Z,2.40
2018-07-16T10:50:57.456Z,0.70
2018-07-16T10:51:57.452Z,1.20
2018-07-16T10:52:57.455Z,3.30
2018-07-16T10:53:57.458Z,1.00
2018-07-16T10:54:57.464Z,1.10
2018-07-16T10:55:57.461Z,2.00
2018-07-16T10:56:57.466Z,1.20
2018-07-16T10:57:57.468Z,1.00
2018-07-16T10:58:57.474Z,0.80
2018-07-16T10:59:57.474Z,1.90
2018-07-16T11:00:57.477Z,1.40
2018-07-16T11:01:57.494Z,1.00
2018-07-16T11:02:57.487Z,3.80
2018-07-16T11:03:57.490Z,2.20
2018-07-16T11:04:57.493Z,1.20
2018-07-16T11:05:57.496Z,1.80
2018-07-16T11:06:57.507Z,2.30
2018-07-16T11:07:57.510Z,1.50
2018-07-16T11:08:57.515Z,1.20
2018-07-16T11:09:57.512Z,1.20
2018-07-16T11:10:57.512Z,1.30
2018-07-16T11:11:57.520Z,1.20
2018-07-16T11:12:57.524Z,0.80
2018-07-16T11:13:57.526Z,0.70
2018-07-16T11:14:57.559Z,1.70
2018-07-16T11:15:57.529Z,1.10
2018-07-16T11:16:57.534Z,0.60
2018-07-16T11:17:57.538Z,1.50
2018-07-16T11:18:57.543Z,1.10
2018-07-16T11:19:57.544Z,1.30
2018-07-16T11:20:57.696Z,1.80
2018-07-16T11:21:57.552Z,1.30
2018-07-16T11:22:57.561Z,3.80
2018-07-16T11:23:57.567Z,24.30
2018-07-16T11:24:57.566Z,2.90
2018-07-16T11:25:57.569Z,1.50
2018-07-16T11:26:57.574Z,1.40
2018-07-16T11:27:57.577Z,1.00
2018-07-16T11:28:57.585Z,1.30
2018-07-16T11:29:57.587Z,0.80
2018-07-16T11:30:57.598Z,0.80
2018-07-16T11:31:57.594Z,0.90
2018-07-16T11:32:57.598Z,0.60
2018-07-16T11:33:57.602Z,3.90
2018-07-16T11:34:57.607Z,0.90
2018-07-16T11:35:57.740Z,0.80
2018-07-16T11:36:57.631Z,1.50
2018-07-16T11:37:57.621Z,1.70
2018-07-16T11:38:57.626Z,3.10
2018-07-16T11:39:57.635Z,2.60
2018-07-16T11:40:57.632Z,1.60
2018-07-16T11:41:57.644Z,3.50
2018-07-16T11:42:57.652Z,1.10
2018-07-16T11:43:57.647Z,0.70
2018-07-16T11:44:57.653Z,1.40
2018-07-16T11:45:57.659Z,2.70
2018-07-16T11:46:57.662Z,3.60
2018-07-16T11:47:57.673Z,1.80
2018-07-16T11:48:57.671Z,1.40
2018-07-16T11:49:57.680Z,0.70
2018-07-16T11:50:57.683Z,11.70
2018-07-16T11:51:57.687Z,59.30
2018-07-16T11:52:57.704Z,94.20
2018-07-16T11:53:57.696Z,5.10
2018-07-16T11:54:57.700Z,0.80
2018-07-16T11:55:57.707Z,2.10
2018-07-16T11:56:57.709Z,2.20
2018-07-16T11:57:57.722Z,1.80
2018-07-16T11:58:57.759Z,1.20
2018-07-16T11:59:57.721Z,1.20
2018-07-16T12:00:57.728Z,1.30
2018-07-16T12:01:57.766Z,2.50
2018-07-16T12:02:57.737Z,9.90
2018-07-16T12:03:57.738Z,6.20
2018-07-16T12:04:57.745Z,3.30
2018-07-16T12:05:57.745Z,1.40
2018-07-16T12:06:57.748Z,1.80
2018-07-16T12:07:57.752Z,2.80
2018-07-16T12:08:57.754Z,0.80
2018-07-16T12:09:57.756Z,0.80
2018-07-16T12:10:57.758Z,2.20
2018-07-16T12:11:57.760Z,1.90
2018-07-16T12:12:57.764Z,5.00
2018-07-16T12:13:57.774Z,0.90
2018-07-16T12:14:57.769Z,1.10
2018-07-16T12:15:57.770Z,1.20
2018-07-16T12:16:57.773Z,1.20
2018-07-16T12:17:57.776Z,2.50
2018-07-16T12:18:57.779Z,1.80
2018-07-16T12:19:57.780Z,2.70
2018-07-16T12:20:57.782Z,2.60
2018-07-16T12:21:57.786Z,0.90
2018-07-16T12:22:57.786Z,0.80
2018-07-16T12:23:57.788Z,2.10
2018-07-16T12:24:57.791Z,1.90
2018-07-16T12:25:57.820Z,0.70
2018-07-16T12:26:57.797Z,1.50
2018-07-16T12:27:57.798Z,2.50
2018-07-16T12:28:57.801Z,1.70
2018-07-16T12:29:57.806Z,2.10
2018-07-16T12:30:57.803Z,1.10
2018-07-16T12:31:57.804Z,1.90
2018-07-16T12:32:57.855Z,2.10
2018-07-16T12:33:57.808Z,1.50
2018-07-16T12:34:57.810Z,1.50
2018-07-16T12:35:57.819Z,2.50
2018-07-16T12:36:57.812Z,1.60
2018-07-16T12:37:57.816Z,0.70
2018-07-16T12:38:57.815Z,0.70
2018-07-16T12:39:57.820Z,2.10
2018-07-16T12:40:57.819Z,1.30
2018-07-16T12:41:57.826Z,2.40
2018-07-16T12:42:57.823Z,0.60
2018-07-16T12:43:57.822Z,1.20
2018-07-16T12:44:57.821Z,1.70
2018-07-16T12:45:57.822Z,0.80
2018-07-16T12:46:57.889Z,1.40
2018-07-16T12:47:57.824Z,0.70
2018-07-16T12:48:57.826Z,0.60
2018-07-16T12:49:57.825Z,1.90
2018-07-16T12:50:57.827Z,1.40
2018-07-16T12:51:57.826Z,0.70
2018-07-16T12:52:57.828Z,1.90
2018-07-16T12:53:57.830Z,1.50
2018-07-16T12:54:57.829Z,2.30
2018-07-16T12:55:57.834Z,1.30
2018-07-16T12:56:57.827Z,1.10
2018-07-16T12:57:57.829Z,0.80
2018-07-16T12:58:57.828Z,0.90
2018-07-16T12:59:57.826Z,0.80
2018-07-16T13:00:57.839Z,1.10
2018-07-16T13:01:57.825Z,1.80
2018-07-16T13:02:57.826Z,1.00
2018-07-16T13:03:57.825Z,2.10
2018-07-16T13:04:57.829Z,0.90
2018-07-16T13:05:57.824Z,1.60
2018-07-16T13:06:57.823Z,1.10
2018-07-16T13:07:57.822Z,2.20
2018-07-16T13:08:57.822Z,1.90
2018-07-16T13:09:57.819Z,2.20
2018-07-16T13:10:57.820Z,2.00
2018-07-16T13:11:57.818Z,1.90
2018-07-16T13:12:57.823Z,1.20
2018-07-16T13:13:57.817Z,2.30
2018-07-16T13:14:57.815Z,1.30
2018-07-16T13:15:57.877Z,1.90